METAR Data
IDs: Format: Raw Decoded Include TAF

Data at: 1334 UTC 07 Jul 2020

KGHG 071315Z AUTO 15006KT 10SM OVC065 19/17 A3019 RMK AO2
KGHG 071255Z AUTO 13007KT 10SM FEW010 SCT065 BKN080 19/17 A3020 RMK AO2
KGHG 071235Z AUTO 14007KT 10SM BKN010 BKN090 BKN110 19/17 A3020 RMK AO2
KGHG 071215Z AUTO VRB04KT 10SM BKN009 19/17 A3019 RMK AO2
KGHG 071155Z AUTO VRB04KT 10SM BKN009 BKN070 BKN110 19/17 A3019 RMK AO2
KGHG 071135Z AUTO 16004KT 18/18 A3020 RMK AO2
KGHG 071115Z AUTO 14004KT 9SM FEW009 BKN070 OVC080 18/18 A3019 RMK AO2
KGHG 071055Z AUTO 15003KT 10SM BKN070 OVC080 18/18 A3018 RMK AO2
KGHG 071035Z AUTO 17004KT 10SM SCT009 OVC070 18/18 A3018 RMK AO2
KGHG 071015Z AUTO 16003KT 10SM BKN009 OVC070 18/18 A3018 RMK AO2
KGHG 070955Z AUTO 00000KT 10SM SCT012 OVC070 17/17 A3019 RMK AO2
KGHG 070935Z AUTO 00000KT 10SM FEW009 BKN013 OVC070 17/17 A3018 RMK AO2
KGHG 070915Z AUTO 00000KT 10SM BKN012 OVC070 17/17 A3018 RMK AO2
KGHG 070855Z AUTO 00000KT 10SM OVC012 16/16 A3017 RMK AO2
KGHG 070835Z AUTO 00000KT 10SM OVC009 16/16 A3017 RMK AO2
KGHG 070815Z AUTO 00000KT 10SM OVC010 16/16 A3017 RMK AO2
KGHG 070755Z AUTO 00000KT 10SM BKN010 OVC075 16/16 A3015 RMK AO2
KGHG 070735Z AUTO 00000KT 10SM FEW010 OVC070 15/15 A3015 RMK AO2
KGHG 070715Z AUTO 00000KT 10SM BKN070 15/15 A3015 RMK AO2
KGHG 070655Z AUTO 00000KT 10SM FEW080 SCT090 15/15 A3015 RMK AO2
KGHG 070635Z AUTO 00000KT 10SM BKN075 OVC090 15/15 A3016 RMK AO2
KGHG 070615Z AUTO 00000KT 10SM BKN075 16/16 A3017 RMK AO2
KGHG 070555Z AUTO 00000KT 10SM CLR 15/15 A3015 RMK AO2
KGHG 070535Z AUTO 00000KT 10SM CLR 15/15 A3016 RMK AO2
KGHG 070515Z AUTO 00000KT 10SM FEW080 15/15 A3016 RMK AO2
KGHG 070455Z AUTO 00000KT 10SM BKN080 16/16 A3016 RMK AO2
KGHG 070435Z AUTO 00000KT 10SM SCT080 16/16 A3016 RMK AO2
KGHG 070415Z AUTO 00000KT 10SM FEW085 16/16 A3016 RMK AO2
KGHG 070355Z AUTO 00000KT 10SM BKN080 17/17 A3016 RMK AO2
KGHG 070335Z AUTO 00000KT 10SM BKN080 17/17 A3016 RMK AO2
KGHG 070315Z AUTO 00000KT 10SM BKN011 BKN080 17/17 A3015 RMK AO2
KGHG 070255Z AUTO 00000KT 10SM OVC010 17/17 A3015 RMK AO2
KGHG 070235Z AUTO 00000KT 10SM BKN010 BKN080 17/17 A3015 RMK AO2
KGHG 070215Z AUTO 23003KT 10SM FEW080 17/17 A3015 RMK AO2
KGHG 070155Z AUTO 00000KT 10SM CLR 17/17 A3015 RMK AO2
KGHG 070135Z AUTO 00000KT 10SM CLR 18/17 A3015 RMK AO2
KGHG 070115Z AUTO VRB05KT 10SM CLR 18/17 A3014 RMK AO2
KGHG 070055Z AUTO 07006KT 10SM CLR 19/17 A3013 RMK AO2
KGHG 070035Z AUTO 07006KT 10SM CLR 19/17 A3013 RMK AO2
KGHG 070015Z AUTO 08005KT 10SM CLR 19/17 A3012 RMK AO2
KGHG 062355Z AUTO 08005KT 10SM CLR 19/17 A3012 RMK AO2
KGHG 062335Z AUTO 12004KT 10SM CLR 20/17 A3012 RMK AO2
KGHG 062315Z AUTO 09004KT 10SM CLR 20/17 A3012 RMK AO2
KGHG 062255Z AUTO 09007KT 10SM CLR 20/18 A3012 RMK AO2
KGHG 062235Z AUTO VRB06KT 10SM FEW013 21/18 A3012 RMK AO2
KGHG 062215Z AUTO VRB05KT 10SM SCT013 21/18 A3013 RMK AO2
KGHG 062155Z AUTO VRB03KT 10SM FEW013 21/18 A3013 RMK AO2
KGHG 062135Z AUTO VRB05KT 10SM CLR 21/18 A3012 RMK AO2
KGHG 062115Z AUTO 05008KT 10SM FEW008 21/18 A3012 RMK AO2
KGHG 062055Z AUTO 06010KT 10SM CLR 21/18 A3011 RMK AO2
KGHG 062035Z AUTO 05007KT 020V080 10SM CLR 21/18 A3011 RMK AO2
KGHG 062015Z AUTO 06007G13KT 10SM FEW014 21/18 A3011 RMK AO2
KGHG 061955Z AUTO 05006KT 10SM CLR 22/17 A3011 RMK AO2
KGHG 061935Z AUTO VRB06G11KT 10SM SCT015 21/18 A3011 RMK AO2
KGHG 061915Z AUTO 06008KT 10SM OVC015 21/18 A3012 RMK AO2
KGHG 061855Z AUTO VRB06KT 10SM OVC015 21/18 A3012 RMK AO2
KGHG 061835Z AUTO VRB05G14KT 10SM OVC015 21/19 A3011 RMK AO2
KGHG 061815Z AUTO 04009KT 360V060 10SM BKN016 21/19 A3011 RMK AO2
KGHG 061755Z AUTO VRB05G13KT 10SM OVC016 21/19 A3011 RMK AO2
KGHG 061735Z AUTO VRB05G12KT 10SM BKN015 OVC020 21/19 A3011 RMK AO2
KGHG 061715Z AUTO 04009KT 010V070 10SM FEW015 OVC021 22/18 A3011 RMK AO2
KGHG 061655Z AUTO 03010KT 10SM FEW005 BKN015 OVC023 21/19 A3011 RMK AO2
KGHG 061635Z AUTO VRB06G12KT 330V060 10SM BKN004 BKN009 BKN014 20/19 A3011 RMK AO2
KGHG 061615Z AUTO VRB04G10KT 2SM BR OVC003 20/20 A3011 RMK AO2
KGHG 061555Z AUTO VRB04G12KT 1 1/4SM BR OVC004 20/20 A3011 RMK AO2
KGHG 061535Z AUTO VRB04KT 10SM BKN005 BKN014 20/20 A3010 RMK AO2
KGHG 061515Z AUTO VRB06G11KT 10SM BKN005 BKN014 21/20 A3009 RMK AO2
KGHG 061455Z AUTO VRB05G11KT 10SM SCT006 BKN012 21/20 A3008 RMK AO2
KGHG 061435Z AUTO VRB04G12KT 10SM SCT005 BKN012 21/20 A3007 RMK AO2
KGHG 061415Z AUTO VRB05G10KT 10SM BKN004 OVC008 20/20 A3006 RMK AO2
KGHG 061355Z AUTO 36006KT 10SM OVC005 20/20 A3006 RMK AO2
KGHG 061335Z AUTO VRB03KT 8SM OVC004 20/20 A3006 RMK AO2
KGHG 061315Z AUTO VRB04KT 3SM BR OVC004 19/19 A3005 RMK AO2
KGHG 061255Z AUTO VRB05G11KT 7SM OVC004 19/19 A3005 RMK AO2
KGHG 061235Z AUTO VRB05G11KT 1 3/4SM BR OVC003 19/19 A3005 RMK AO2
KGHG 061215Z AUTO VRB06G12KT 1/4SM FG OVC003 19/19 A3004 RMK AO2
KGHG 061155Z AUTO VRB04G12KT M1/4SM FG OVC003 19/19 A3003 RMK AO2
KGHG 061135Z AUTO VRB06KT 1/4SM FG OVC003 19/19 A3003 RMK AO2
KGHG 061115Z AUTO VRB04KT 1/4SM FG OVC003 19/19 A3002 RMK AO2
KGHG 061055Z AUTO 00000KT 10SM FEW006 20/19 A3001 RMK AO2
KGHG 061035Z AUTO 00000KT 10SM CLR 20/20 A3001 RMK AO2
KGHG 061015Z AUTO 00000KT 10SM SCT003 19/19 A3000 RMK AO2
KGHG 060955Z AUTO 00000KT 10SM OVC003 19/19 A2999 RMK AO2
KGHG 060935Z AUTO 00000KT 10SM BKN003 OVC017 19/19 A2998 RMK AO2
KGHG 060915Z AUTO 00000KT 10SM FEW002 OVC017 19/19 A2998 RMK AO2
KGHG 060855Z AUTO 00000KT 10SM OVC017 19/19 A2997 RMK AO2
KGHG 060835Z AUTO 00000KT 10SM OVC017 19/19 A2997 RMK AO2
KGHG 060815Z AUTO 00000KT 10SM OVC016 19/19 A2996 RMK AO2
KGHG 060755Z AUTO 00000KT 10SM OVC017 19/19 A2995 RMK AO2
KGHG 060735Z AUTO 00000KT 8SM FEW002 BKN018 18/18 A2996 RMK AO2
KGHG 060715Z AUTO 00000KT 6SM BR BKN003 18/18 A2996 RMK AO2
KGHG 060655Z AUTO 00000KT 7SM OVC003 18/18 A2996 RMK AO2
KGHG 060635Z AUTO 00000KT 8SM OVC003 18/18 A2995 RMK AO2
KGHG 060615Z AUTO 00000KT 10SM BKN002 OVC036 19/19 A2996 RMK AO2 LTG DSNT SE
KGHG 060555Z AUTO 00000KT 10SM OVC003 19/19 A2995 RMK AO2
KGHG 060535Z AUTO 00000KT 9SM OVC003 18/18 A2996 RMK AO2
KGHG 060515Z AUTO 18003KT 5SM BR OVC003 18/18 A2996 RMK AO2 LTG DSNT SE AND S
KGHG 060455Z AUTO 00000KT 8SM BKN003 OVC014 19/19 A2996 RMK AO2 LTG DSNT E P0002
KGHG 060435Z AUTO 00000KT 10SM BKN013 OVC038 19/19 A2997 RMK AO2 LTG DSNT ALQDS
KGHG 060415Z AUTO 05004G11KT 7SM -TSRA BKN009 BKN038 OVC060 20/20 A2996 RMK AO2 LTG DSNT ALQDS
KGHG 060355Z AUTO VRB05G15KT 2SM +TSRA SCT006 BKN037 OVC055 21/21 A2997 RMK AO2 LTG DSNT ALQDS P0020
KGHG 060335Z AUTO 27007G14KT 230V310 4SM VCTS RA OVC007 22/22 A2996 RMK AO2 LTG DSNT ALQDS
KGHG 060315Z AUTO 22007KT 5SM VCTS RA BKN007 BKN080 OVC110 22/22 A2992 RMK AO2 LTG DSNT W-NE
KGHG 060255Z AUTO 20006KT 10SM BKN007 OVC110 22/22 A2992 RMK AO2 LTG DSNT N AND NW
KGHG 060235Z AUTO 21006KT 10SM BKN006 OVC110 22/22 A2994 RMK AO2
KGHG 060215Z AUTO 21008G13KT 10SM OVC006 22/22 A2994 RMK AO2 LTG DSNT N AND NW
KGHG 060155Z AUTO 21007G14KT 10SM OVC006 22/21 A2993 RMK AO2 LTG DSNT NW
KGHG 060135Z AUTO 20010KT 10SM OVC007 22/21 A2993 RMK AO2